sensor_id;sensor_type;location;lat;lon;timestamp;P1;durP1;ratioP1;P2;durP2;ratioP2
63114;SDS011;49208;50.874;6.466;2022-08-19T05:02:06;30.35;;;18.13;;
63114;SDS011;49208;50.874;6.466;2022-08-19T05:04:33;29.05;;;19.45;;
63114;SDS011;49208;50.874;6.466;2022-08-19T05:07:00;26.67;;;18.70;;
63114;SDS011;49208;50.874;6.466;2022-08-19T05:09:26;23.83;;;16.77;;
63114;SDS011;49208;50.874;6.466;2022-08-19T05:11:51;30.23;;;18.52;;
63114;SDS011;49208;50.874;6.466;2022-08-19T05:14:17;20.85;;;14.57;;
63114;SDS011;49208;50.874;6.466;2022-08-19T05:16:44;23.35;;;16.38;;
63114;SDS011;49208;50.874;6.466;2022-08-19T05:19:10;25.30;;;17.00;;
63114;SDS011;49208;50.874;6.466;2022-08-19T05:21:54;25.70;;;16.75;;
63114;SDS011;49208;50.874;6.466;2022-08-19T05:24:38;29.88;;;18.50;;
63114;SDS011;49208;50.874;6.466;2022-08-19T05:27:03;21.70;;;13.80;;
63114;SDS011;49208;50.874;6.466;2022-08-19T05:29:31;35.20;;;22.63;;
63114;SDS011;49208;50.874;6.466;2022-08-19T05:31:59;31.70;;;19.30;;
63114;SDS011;49208;50.874;6.466;2022-08-19T05:34:26;30.75;;;20.15;;
63114;SDS011;49208;50.874;6.466;2022-08-19T05:36:52;25.25;;;16.67;;
63114;SDS011;49208;50.874;6.466;2022-08-19T05:39:21;26.17;;;16.38;;
63114;SDS011;49208;50.874;6.466;2022-08-19T05:41:48;27.30;;;17.42;;
63114;SDS011;49208;50.874;6.466;2022-08-19T05:44:15;33.55;;;20.48;;
63114;SDS011;49208;50.874;6.466;2022-08-19T05:46:45;27.27;;;18.07;;
63114;SDS011;49208;50.874;6.466;2022-08-19T05:49:12;38.20;;;21.00;;
63114;SDS011;49208;50.874;6.466;2022-08-19T05:51:40;35.13;;;21.08;;
63114;SDS011;49208;50.874;6.466;2022-08-19T05:54:05;34.90;;;22.98;;
63114;SDS011;49208;50.874;6.466;2022-08-19T05:56:33;37.40;;;23.23;;
63114;SDS011;49208;50.874;6.466;2022-08-19T05:59:03;37.92;;;22.95;;
63114;SDS011;49208;50.874;6.466;2022-08-19T06:01:33;36.45;;;21.60;;
63114;SDS011;49208;50.874;6.466;2022-08-19T06:04:00;46.03;;;27.55;;
63114;SDS011;49208;50.874;6.466;2022-08-19T06:06:25;38.45;;;22.58;;
63114;SDS011;49208;50.874;6.466;2022-08-19T06:08:51;45.78;;;27.10;;
63114;SDS011;49208;50.874;6.466;2022-08-19T06:11:36;46.72;;;27.63;;
63114;SDS011;49208;50.874;6.466;2022-08-19T06:14:06;43.20;;;27.42;;
63114;SDS011;49208;50.874;6.466;2022-08-19T06:16:37;43.75;;;25.63;;
63114;SDS011;49208;50.874;6.466;2022-08-19T06:19:04;47.97;;;29.42;;
63114;SDS011;49208;50.874;6.466;2022-08-19T06:21:33;48.80;;;30.08;;
63114;SDS011;49208;50.874;6.466;2022-08-19T06:24:01;39.85;;;24.55;;
63114;SDS011;49208;50.874;6.466;2022-08-19T06:26:27;38.78;;;24.85;;
63114;SDS011;49208;50.874;6.466;2022-08-19T06:28:53;39.22;;;23.45;;
63114;SDS011;49208;50.874;6.466;2022-08-19T06:31:20;31.58;;;20.13;;
63114;SDS011;49208;50.874;6.466;2022-08-19T06:33:49;35.78;;;20.08;;
63114;SDS011;49208;50.874;6.466;2022-08-19T06:36:26;45.67;;;28.92;;
63114;SDS011;49208;50.874;6.466;2022-08-19T06:38:55;47.33;;;30.05;;
63114;SDS011;49208;50.874;6.466;2022-08-19T06:41:22;42.88;;;25.88;;
63114;SDS011;49208;50.874;6.466;2022-08-19T06:43:47;47.90;;;30.83;;
63114;SDS011;49208;50.874;6.466;2022-08-19T06:46:14;42.40;;;27.77;;
63114;SDS011;49208;50.874;6.466;2022-08-19T06:48:40;47.70;;;30.40;;
63114;SDS011;49208;50.874;6.466;2022-08-19T06:51:06;47.08;;;30.98;;
63114;SDS011;49208;50.874;6.466;2022-08-19T06:53:32;44.83;;;29.35;;
63114;SDS011;49208;50.874;6.466;2022-08-19T06:55:57;48.25;;;30.23;;
63114;SDS011;49208;50.874;6.466;2022-08-19T06:58:27;46.55;;;28.80;;
63114;SDS011;49208;50.874;6.466;2022-08-19T07:00:57;48.40;;;30.77;;
63114;SDS011;49208;50.874;6.466;2022-08-19T07:03:30;49.83;;;28.75;;
63114;SDS011;49208;50.874;6.466;2022-08-19T07:05:58;47.47;;;29.05;;
63114;SDS011;49208;50.874;6.466;2022-08-19T07:08:31;37.40;;;24.67;;
63114;SDS011;49208;50.874;6.466;2022-08-19T07:10:57;44.83;;;28.40;;
63114;SDS011;49208;50.874;6.466;2022-08-19T07:13:23;43.85;;;27.15;;
63114;SDS011;49208;50.874;6.466;2022-08-19T07:15:49;43.42;;;29.27;;
63114;SDS011;49208;50.874;6.466;2022-08-19T07:18:15;43.30;;;26.90;;
63114;SDS011;49208;50.874;6.466;2022-08-19T07:20:42;41.92;;;27.33;;
63114;SDS011;49208;50.874;6.466;2022-08-19T07:23:08;42.88;;;28.80;;
63114;SDS011;49208;50.874;6.466;2022-08-19T07:25:35;36.73;;;25.30;;
63114;SDS011;49208;50.874;6.466;2022-08-19T07:28:02;42.55;;;27.20;;
63114;SDS011;49208;50.874;6.466;2022-08-19T07:30:28;37.60;;;24.50;;
63114;SDS011;49208;50.874;6.466;2022-08-19T07:32:53;35.08;;;24.55;;
63114;SDS011;49208;50.874;6.466;2022-08-19T07:35:21;32.47;;;22.92;;
63114;SDS011;49208;50.874;6.466;2022-08-19T07:37:47;33.55;;;22.33;;
63114;SDS011;49208;50.874;6.466;2022-08-19T07:40:12;31.92;;;20.95;;
63114;SDS011;49208;50.874;6.466;2022-08-19T07:42:38;28.67;;;18.63;;
63114;SDS011;49208;50.874;6.466;2022-08-19T07:45:04;32.05;;;19.75;;
63114;SDS011;49208;50.874;6.466;2022-08-19T07:47:31;22.58;;;17.13;;
63114;SDS011;49208;50.874;6.466;2022-08-19T07:49:56;25.48;;;17.85;;
63114;SDS011;49208;50.874;6.466;2022-08-19T07:52:22;23.58;;;16.65;;
63114;SDS011;49208;50.874;6.466;2022-08-19T07:54:47;23.40;;;17.50;;
63114;SDS011;49208;50.874;6.466;2022-08-19T07:57:14;20.50;;;15.07;;
63114;SDS011;49208;50.874;6.466;2022-08-19T07:59:40;22.77;;;16.33;;
63114;SDS011;49208;50.874;6.466;2022-08-19T08:02:05;21.23;;;14.57;;
63114;SDS011;49208;50.874;6.466;2022-08-19T08:04:31;21.90;;;14.67;;
63114;SDS011;49208;50.874;6.466;2022-08-19T08:07:15;18.48;;;13.23;;
63114;SDS011;49208;50.874;6.466;2022-08-19T08:10:10;17.65;;;13.10;;
63114;SDS011;49208;50.874;6.466;2022-08-19T08:12:38;18.52;;;13.30;;
63114;SDS011;49208;50.874;6.466;2022-08-19T08:15:12;17.85;;;13.02;;
63114;SDS011;49208;50.874;6.466;2022-08-19T08:17:41;19.73;;;12.77;;
63114;SDS011;49208;50.874;6.466;2022-08-19T08:20:07;18.23;;;12.97;;
63114;SDS011;49208;50.874;6.466;2022-08-19T08:22:33;15.20;;;10.43;;
63114;SDS011;49208;50.874;6.466;2022-08-19T08:25:18;16.38;;;11.32;;
63114;SDS011;49208;50.874;6.466;2022-08-19T08:27:47;17.38;;;10.80;;
63114;SDS011;49208;50.874;6.466;2022-08-19T08:30:18;15.43;;;11.23;;
63114;SDS011;49208;50.874;6.466;2022-08-19T08:32:45;19.25;;;13.23;;
63114;SDS011;49208;50.874;6.466;2022-08-19T08:35:13;20.47;;;13.03;;
63114;SDS011;49208;50.874;6.466;2022-08-19T08:37:41;18.35;;;12.13;;
63114;SDS011;49208;50.874;6.466;2022-08-19T08:43:00;20.73;;;13.63;;
63114;SDS011;49208;50.874;6.466;2022-08-19T08:45:36;21.35;;;13.68;;
63114;SDS011;49208;50.874;6.466;2022-08-19T08:48:15;24.05;;;14.88;;
63114;SDS011;49208;50.874;6.466;2022-08-19T08:50:46;27.00;;;17.70;;
63114;SDS011;49208;50.874;6.466;2022-08-19T08:53:16;19.13;;;14.45;;
63114;SDS011;49208;50.874;6.466;2022-08-19T08:55:43;24.25;;;16.33;;
63114;SDS011;49208;50.874;6.466;2022-08-19T08:58:12;27.08;;;18.10;;
63114;SDS011;49208;50.874;6.466;2022-08-19T09:00:45;30.10;;;20.10;;
63114;SDS011;49208;50.874;6.466;2022-08-19T09:03:22;27.05;;;18.45;;
63114;SDS011;49208;50.874;6.466;2022-08-19T09:06:51;30.73;;;20.67;;
63114;SDS011;49208;50.874;6.466;2022-08-19T09:14:32;25.92;;;18.08;;
63114;SDS011;49208;50.874;6.466;2022-08-19T09:16:59;22.63;;;16.58;;
63114;SDS011;49208;50.874;6.466;2022-08-19T09:19:28;22.13;;;17.55;;
63114;SDS011;49208;50.874;6.466;2022-08-19T09:21:54;23.52;;;17.70;;
63114;SDS011;49208;50.874;6.466;2022-08-19T09:24:20;24.83;;;18.05;;
63114;SDS011;49208;50.874;6.466;2022-08-19T09:26:46;26.77;;;18.67;;
63114;SDS011;49208;50.874;6.466;2022-08-19T09:29:11;21.97;;;17.03;;
63114;SDS011;49208;50.874;6.466;2022-08-19T09:31:37;24.43;;;16.33;;
63114;SDS011;49208;50.874;6.466;2022-08-19T09:34:03;20.38;;;16.08;;
63114;SDS011;49208;50.874;6.466;2022-08-19T09:36:33;21.13;;;16.85;;
63114;SDS011;49208;50.874;6.466;2022-08-19T09:39:02;22.63;;;18.70;;
63114;SDS011;49208;50.874;6.466;2022-08-19T09:41:28;22.30;;;16.83;;
63114;SDS011;49208;50.874;6.466;2022-08-19T09:43:55;19.67;;;14.57;;
63114;SDS011;49208;50.874;6.466;2022-08-19T09:46:22;24.65;;;15.57;;
63114;SDS011;49208;50.874;6.466;2022-08-19T09:48:50;18.98;;;15.63;;
63114;SDS011;49208;50.874;6.466;2022-08-19T09:51:17;16.95;;;13.63;;
63114;SDS011;49208;50.874;6.466;2022-08-19T09:53:46;16.38;;;11.75;;
63114;SDS011;49208;50.874;6.466;2022-08-19T09:58:38;17.92;;;13.63;;
63114;SDS011;49208;50.874;6.466;2022-08-19T10:01:04;20.30;;;15.48;;
63114;SDS011;49208;50.874;6.466;2022-08-19T10:03:31;19.92;;;15.82;;
63114;SDS011;49208;50.874;6.466;2022-08-19T10:06:00;20.08;;;14.93;;
63114;SDS011;49208;50.874;6.466;2022-08-19T10:08:28;20.25;;;16.52;;
63114;SDS011;49208;50.874;6.466;2022-08-19T10:10:56;19.20;;;16.10;;
63114;SDS011;49208;50.874;6.466;2022-08-19T10:13:27;24.05;;;17.42;;
63114;SDS011;49208;50.874;6.466;2022-08-19T10:15:54;24.10;;;16.45;;
63114;SDS011;49208;50.874;6.466;2022-08-19T10:18:21;24.95;;;17.98;;
63114;SDS011;49208;50.874;6.466;2022-08-19T10:20:49;20.33;;;17.15;;
63114;SDS011;49208;50.874;6.466;2022-08-19T10:23:16;28.83;;;19.30;;
63114;SDS011;49208;50.874;6.466;2022-08-19T10:25:42;21.17;;;17.23;;
63114;SDS011;49208;50.874;6.466;2022-08-19T10:28:08;21.57;;;17.10;;
63114;SDS011;49208;50.874;6.466;2022-08-19T10:30:37;22.38;;;17.38;;
63114;SDS011;49208;50.874;6.466;2022-08-19T10:33:06;23.73;;;18.35;;
63114;SDS011;49208;50.874;6.466;2022-08-19T10:35:32;22.40;;;17.40;;
63114;SDS011;49208;50.874;6.466;2022-08-19T10:37:58;25.65;;;16.85;;
63114;SDS011;49208;50.874;6.466;2022-08-19T10:40:24;24.77;;;17.05;;
63114;SDS011;49208;50.874;6.466;2022-08-19T10:42:51;20.70;;;17.23;;
63114;SDS011;49208;50.874;6.466;2022-08-19T10:45:17;22.13;;;17.00;;
63114;SDS011;49208;50.874;6.466;2022-08-19T10:47:42;21.73;;;15.53;;
63114;SDS011;49208;50.874;6.466;2022-08-19T10:50:08;25.20;;;17.97;;
63114;SDS011;49208;50.874;6.466;2022-08-19T10:52:52;23.63;;;18.08;;
63114;SDS011;49208;50.874;6.466;2022-08-19T10:55:21;23.57;;;18.73;;
63114;SDS011;49208;50.874;6.466;2022-08-19T10:58:14;24.50;;;18.88;;
63114;SDS011;49208;50.874;6.466;2022-08-19T11:00:41;21.98;;;14.98;;
63114;SDS011;49208;50.874;6.466;2022-08-19T11:03:08;20.95;;;16.48;;
63114;SDS011;49208;50.874;6.466;2022-08-19T11:05:33;20.57;;;15.23;;
63114;SDS011;49208;50.874;6.466;2022-08-19T11:07:59;22.83;;;15.93;;
63114;SDS011;49208;50.874;6.466;2022-08-19T11:10:24;17.83;;;15.07;;
63114;SDS011;49208;50.874;6.466;2022-08-19T11:12:50;21.53;;;15.43;;
63114;SDS011;49208;50.874;6.466;2022-08-19T11:15:19;20.73;;;14.88;;
63114;SDS011;49208;50.874;6.466;2022-08-19T11:17:45;22.08;;;17.25;;
63114;SDS011;49208;50.874;6.466;2022-08-19T11:20:11;18.77;;;12.93;;
63114;SDS011;49208;50.874;6.466;2022-08-19T11:22:38;20.67;;;14.48;;
63114;SDS011;49208;50.874;6.466;2022-08-19T11:27:30;18.53;;;13.53;;
63114;SDS011;49208;50.874;6.466;2022-08-19T11:29:55;20.17;;;13.30;;
63114;SDS011;49208;50.874;6.466;2022-08-19T11:32:21;16.50;;;13.37;;
63114;SDS011;49208;50.874;6.466;2022-08-19T11:34:46;16.10;;;12.67;;
63114;SDS011;49208;50.874;6.466;2022-08-19T11:37:11;15.83;;;12.83;;
63114;SDS011;49208;50.874;6.466;2022-08-19T11:39:37;13.10;;;10.13;;
63114;SDS011;49208;50.874;6.466;2022-08-19T11:42:03;16.97;;;12.67;;
63114;SDS011;49208;50.874;6.466;2022-08-19T11:44:49;16.27;;;12.32;;
63114;SDS011;49208;50.874;6.466;2022-08-19T11:47:14;11.70;;;8.83;;
63114;SDS011;49208;50.874;6.466;2022-08-19T11:49:40;13.60;;;9.30;;
63114;SDS011;49208;50.874;6.466;2022-08-19T11:52:06;13.83;;;10.27;;
63114;SDS011;49208;50.874;6.466;2022-08-19T11:54:32;17.07;;;11.17;;
63114;SDS011;49208;50.874;6.466;2022-08-19T11:56:58;14.88;;;10.75;;
63114;SDS011;49208;50.874;6.466;2022-08-19T11:59:23;14.43;;;10.73;;
63114;SDS011;49208;50.874;6.466;2022-08-19T12:01:48;16.93;;;12.43;;
63114;SDS011;49208;50.874;6.466;2022-08-19T12:04:14;18.27;;;13.57;;
63114;SDS011;49208;50.874;6.466;2022-08-19T12:06:40;15.40;;;11.80;;
63114;SDS011;49208;50.874;6.466;2022-08-19T12:09:06;17.33;;;10.45;;
63114;SDS011;49208;50.874;6.466;2022-08-19T12:11:34;13.93;;;11.18;;
63114;SDS011;49208;50.874;6.466;2022-08-19T12:14:01;13.15;;;10.68;;
63114;SDS011;49208;50.874;6.466;2022-08-19T12:16:28;13.93;;;11.57;;
63114;SDS011;49208;50.874;6.466;2022-08-19T12:18:56;13.95;;;11.20;;
63114;SDS011;49208;50.874;6.466;2022-08-19T12:21:23;16.00;;;11.45;;
63114;SDS011;49208;50.874;6.466;2022-08-19T12:23:53;20.85;;;12.07;;
63114;SDS011;49208;50.874;6.466;2022-08-19T12:28:45;14.27;;;11.80;;
63114;SDS011;49208;50.874;6.466;2022-08-19T12:31:13;15.82;;;11.75;;
63114;SDS011;49208;50.874;6.466;2022-08-19T12:33:39;15.18;;;10.70;;
63114;SDS011;49208;50.874;6.466;2022-08-19T12:36:09;13.27;;;10.60;;
63114;SDS011;49208;50.874;6.466;2022-08-19T12:38:45;15.35;;;10.45;;
63114;SDS011;49208;50.874;6.466;2022-08-19T12:41:32;15.07;;;10.57;;
63114;SDS011;49208;50.874;6.466;2022-08-19T12:46:51;18.63;;;13.93;;
63114;SDS011;49208;50.874;6.466;2022-08-19T12:49:17;13.97;;;9.90;;
63114;SDS011;49208;50.874;6.466;2022-08-19T12:51:42;16.20;;;11.87;;
63114;SDS011;49208;50.874;6.466;2022-08-19T12:54:07;15.90;;;11.07;;
63114;SDS011;49208;50.874;6.466;2022-08-19T12:56:33;11.67;;;8.83;;
63114;SDS011;49208;50.874;6.466;2022-08-19T12:59:01;17.03;;;12.70;;
63114;SDS011;49208;50.874;6.466;2022-08-19T13:01:27;17.65;;;12.00;;
63114;SDS011;49208;50.874;6.466;2022-08-19T13:03:57;13.27;;;10.10;;
63114;SDS011;49208;50.874;6.466;2022-08-19T13:06:24;14.63;;;10.50;;
63114;SDS011;49208;50.874;6.466;2022-08-19T13:08:50;12.98;;;9.05;;
63114;SDS011;49208;50.874;6.466;2022-08-19T13:11:16;13.33;;;9.27;;
63114;SDS011;49208;50.874;6.466;2022-08-19T13:13:44;13.98;;;9.32;;
63114;SDS011;49208;50.874;6.466;2022-08-19T13:16:12;10.43;;;6.65;;
63114;SDS011;49208;50.874;6.466;2022-08-19T13:21:05;10.73;;;7.10;;
63114;SDS011;49208;50.874;6.466;2022-08-19T13:23:33;10.23;;;6.63;;
63114;SDS011;49208;50.874;6.466;2022-08-19T13:26:02;9.15;;;6.18;;
63114;SDS011;49208;50.874;6.466;2022-08-19T13:28:29;9.98;;;6.97;;
63114;SDS011;49208;50.874;6.466;2022-08-19T13:31:16;10.10;;;6.32;;
63114;SDS011;49208;50.874;6.466;2022-08-19T13:34:02;8.98;;;5.47;;
63114;SDS011;49208;50.874;6.466;2022-08-19T13:36:28;8.35;;;4.55;;
63114;SDS011;49208;50.874;6.466;2022-08-19T13:38:53;7.57;;;4.10;;
63114;SDS011;49208;50.874;6.466;2022-08-19T13:41:19;7.57;;;3.70;;
63114;SDS011;49208;50.874;6.466;2022-08-19T13:43:44;6.20;;;3.47;;
63114;SDS011;49208;50.874;6.466;2022-08-19T13:46:10;7.27;;;3.30;;
63114;SDS011;49208;50.874;6.466;2022-08-19T13:48:39;6.90;;;3.40;;
63114;SDS011;49208;50.874;6.466;2022-08-19T13:51:06;6.82;;;3.28;;
63114;SDS011;49208;50.874;6.466;2022-08-19T13:53:34;4.47;;;3.33;;
63114;SDS011;49208;50.874;6.466;2022-08-19T13:56:06;6.45;;;3.67;;
63114;SDS011;49208;50.874;6.466;2022-08-19T13:58:34;5.60;;;3.53;;
63114;SDS011;49208;50.874;6.466;2022-08-19T14:00:59;8.77;;;3.67;;
63114;SDS011;49208;50.874;6.466;2022-08-19T14:03:25;6.53;;;4.17;;
63114;SDS011;49208;50.874;6.466;2022-08-19T14:05:51;6.80;;;3.47;;
63114;SDS011;49208;50.874;6.466;2022-08-19T14:08:17;7.77;;;3.30;;
63114;SDS011;49208;50.874;6.466;2022-08-19T14:10:43;7.38;;;3.20;;
63114;SDS011;49208;50.874;6.466;2022-08-19T14:13:09;5.88;;;3.10;;
63114;SDS011;49208;50.874;6.466;2022-08-19T14:15:35;5.23;;;3.30;;
63114;SDS011;49208;50.874;6.466;2022-08-19T14:18:02;5.75;;;3.03;;
63114;SDS011;49208;50.874;6.466;2022-08-19T14:20:27;4.80;;;3.20;;
63114;SDS011;49208;50.874;6.466;2022-08-19T14:22:53;6.03;;;3.50;;
63114;SDS011;49208;50.874;6.466;2022-08-19T14:25:23;5.20;;;3.17;;
63114;SDS011;49208;50.874;6.466;2022-08-19T14:27:51;5.90;;;3.13;;
63114;SDS011;49208;50.874;6.466;2022-08-19T14:30:19;5.60;;;2.93;;
63114;SDS011;49208;50.874;6.466;2022-08-19T14:32:47;6.82;;;2.60;;
63114;SDS011;49208;50.874;6.466;2022-08-19T14:35:13;4.70;;;2.83;;
63114;SDS011;49208;50.874;6.466;2022-08-19T14:40:06;5.07;;;2.67;;
63114;SDS011;49208;50.874;6.466;2022-08-19T14:42:33;5.38;;;2.95;;
63114;SDS011;49208;50.874;6.466;2022-08-19T14:44:59;5.93;;;2.95;;
63114;SDS011;49208;50.874;6.466;2022-08-19T14:47:25;6.25;;;2.85;;
63114;SDS011;49208;50.874;6.466;2022-08-19T14:49:52;6.00;;;3.00;;
63114;SDS011;49208;50.874;6.466;2022-08-19T14:52:27;5.38;;;3.00;;
63114;SDS011;49208;50.874;6.466;2022-08-19T14:54:52;4.50;;;2.92;;
63114;SDS011;49208;50.874;6.466;2022-08-19T14:57:18;4.33;;;3.10;;
63114;SDS011;49208;50.874;6.466;2022-08-19T14:59:44;8.83;;;2.67;;
63114;SDS011;49208;50.874;6.466;2022-08-19T15:02:10;5.17;;;2.03;;
63114;SDS011;49208;50.874;6.466;2022-08-19T15:04:36;4.35;;;3.03;;
63114;SDS011;49208;50.874;6.466;2022-08-19T15:07:01;4.20;;;2.43;;
63114;SDS011;49208;50.874;6.466;2022-08-19T15:09:31;4.82;;;1.95;;
63114;SDS011;49208;50.874;6.466;2022-08-19T15:12:02;3.92;;;2.10;;
63114;SDS011;49208;50.874;6.466;2022-08-19T15:14:29;4.28;;;2.00;;
63114;SDS011;49208;50.874;6.466;2022-08-19T15:17:00;4.70;;;1.77;;
63114;SDS011;49208;50.874;6.466;2022-08-19T15:19:34;4.07;;;1.88;;
63114;SDS011;49208;50.874;6.466;2022-08-19T15:22:09;3.58;;;1.80;;
63114;SDS011;49208;50.874;6.466;2022-08-19T15:24:34;3.47;;;1.97;;
63114;SDS011;49208;50.874;6.466;2022-08-19T15:27:00;5.50;;;2.17;;
63114;SDS011;49208;50.874;6.466;2022-08-19T15:29:27;4.35;;;2.28;;
63114;SDS011;49208;50.874;6.466;2022-08-19T15:31:52;3.60;;;1.97;;
63114;SDS011;49208;50.874;6.466;2022-08-19T15:34:22;4.15;;;1.90;;
63114;SDS011;49208;50.874;6.466;2022-08-19T15:36:48;5.57;;;2.00;;
63114;SDS011;49208;50.874;6.466;2022-08-19T15:39:20;4.30;;;2.38;;
63114;SDS011;49208;50.874;6.466;2022-08-19T15:41:48;3.90;;;2.00;;
63114;SDS011;49208;50.874;6.466;2022-08-19T15:44:17;12.10;;;2.60;;
63114;SDS011;49208;50.874;6.466;2022-08-19T15:46:45;3.75;;;1.90;;
63114;SDS011;49208;50.874;6.466;2022-08-19T15:49:12;4.45;;;2.40;;
63114;SDS011;49208;50.874;6.466;2022-08-19T15:51:42;4.25;;;2.13;;
63114;SDS011;49208;50.874;6.466;2022-08-19T15:54:11;5.30;;;1.98;;
63114;SDS011;49208;50.874;6.466;2022-08-19T15:56:38;4.82;;;2.20;;
63114;SDS011;49208;50.874;6.466;2022-08-19T15:59:23;5.10;;;2.67;;
63114;SDS011;49208;50.874;6.466;2022-08-19T16:02:07;5.22;;;3.30;;
63114;SDS011;49208;50.874;6.466;2022-08-19T16:04:54;4.85;;;2.42;;
63114;SDS011;49208;50.874;6.466;2022-08-19T16:07:38;3.55;;;2.10;;
63114;SDS011;49208;50.874;6.466;2022-08-19T16:10:04;4.83;;;2.93;;
63114;SDS011;49208;50.874;6.466;2022-08-19T16:12:30;5.20;;;2.83;;
63114;SDS011;49208;50.874;6.466;2022-08-19T16:14:56;4.00;;;2.50;;
63114;SDS011;49208;50.874;6.466;2022-08-19T16:17:22;5.97;;;3.23;;
63114;SDS011;49208;50.874;6.466;2022-08-19T16:19:48;6.65;;;2.83;;
63114;SDS011;49208;50.874;6.466;2022-08-19T16:22:14;6.60;;;3.17;;
63114;SDS011;49208;50.874;6.466;2022-08-19T16:24:39;5.32;;;3.00;;
63114;SDS011;49208;50.874;6.466;2022-08-19T16:27:05;4.20;;;2.47;;
63114;SDS011;49208;50.874;6.466;2022-08-19T16:29:30;8.10;;;2.97;;
63114;SDS011;49208;50.874;6.466;2022-08-19T16:31:59;5.22;;;2.38;;
63114;SDS011;49208;50.874;6.466;2022-08-19T16:34:25;4.73;;;2.10;;
63114;SDS011;49208;50.874;6.466;2022-08-19T16:36:51;4.30;;;2.03;;
63114;SDS011;49208;50.874;6.466;2022-08-19T16:39:16;3.35;;;1.95;;
63114;SDS011;49208;50.874;6.466;2022-08-19T16:41:42;4.47;;;2.30;;
63114;SDS011;49208;50.874;6.466;2022-08-19T16:44:10;3.88;;;1.75;;
63114;SDS011;49208;50.874;6.466;2022-08-19T16:46:38;3.58;;;1.60;;
63114;SDS011;49208;50.874;6.466;2022-08-19T16:49:05;3.67;;;1.88;;
63114;SDS011;49208;50.874;6.466;2022-08-19T16:51:34;3.40;;;1.73;;
63114;SDS011;49208;50.874;6.466;2022-08-19T16:54:01;2.63;;;1.63;;
63114;SDS011;49208;50.874;6.466;2022-08-19T16:56:27;3.63;;;1.50;;
63114;SDS011;49208;50.874;6.466;2022-08-19T16:58:53;3.55;;;1.50;;
63114;SDS011;49208;50.874;6.466;2022-08-19T17:01:19;3.67;;;1.50;;
63114;SDS011;49208;50.874;6.466;2022-08-19T17:03:45;3.90;;;1.85;;
63114;SDS011;49208;50.874;6.466;2022-08-19T17:06:13;3.65;;;1.85;;
63114;SDS011;49208;50.874;6.466;2022-08-19T17:08:41;3.90;;;1.70;;
63114;SDS011;49208;50.874;6.466;2022-08-19T17:11:07;4.10;;;1.87;;
63114;SDS011;49208;50.874;6.466;2022-08-19T17:13:33;3.35;;;1.50;;
63114;SDS011;49208;50.874;6.466;2022-08-19T17:16:00;2.97;;;1.55;;
63114;SDS011;49208;50.874;6.466;2022-08-19T17:18:25;3.40;;;1.77;;
63114;SDS011;49208;50.874;6.466;2022-08-19T17:20:51;3.78;;;1.85;;
63114;SDS011;49208;50.874;6.466;2022-08-19T17:23:19;3.33;;;1.60;;
63114;SDS011;49208;50.874;6.466;2022-08-19T17:25:46;3.75;;;1.73;;
63114;SDS011;49208;50.874;6.466;2022-08-19T17:28:13;5.10;;;2.10;;
63114;SDS011;49208;50.874;6.466;2022-08-19T17:30:42;4.30;;;1.60;;
63114;SDS011;49208;50.874;6.466;2022-08-19T17:33:08;4.95;;;2.08;;
63114;SDS011;49208;50.874;6.466;2022-08-19T17:35:35;4.22;;;2.15;;
63114;SDS011;49208;50.874;6.466;2022-08-19T17:38:06;3.63;;;1.70;;
63114;SDS011;49208;50.874;6.466;2022-08-19T17:40:32;3.45;;;1.70;;
63114;SDS011;49208;50.874;6.466;2022-08-19T17:42:59;5.75;;;2.08;;
63114;SDS011;49208;50.874;6.466;2022-08-19T17:45:25;4.35;;;2.45;;
63114;SDS011;49208;50.874;6.466;2022-08-19T17:47:51;6.18;;;2.60;;
63114;SDS011;49208;50.874;6.466;2022-08-19T17:50:16;7.68;;;2.60;;
63114;SDS011;49208;50.874;6.466;2022-08-19T17:52:42;4.20;;;2.22;;
63114;SDS011;49208;50.874;6.466;2022-08-19T17:55:08;7.80;;;2.67;;
63114;SDS011;49208;50.874;6.466;2022-08-19T17:57:35;4.35;;;2.13;;
63114;SDS011;49208;50.874;6.466;2022-08-19T18:00:04;4.43;;;2.30;;
63114;SDS011;49208;50.874;6.466;2022-08-19T18:02:31;4.80;;;2.30;;
63114;SDS011;49208;50.874;6.466;2022-08-19T18:04:56;4.57;;;2.47;;
63114;SDS011;49208;50.874;6.466;2022-08-19T18:07:22;5.00;;;2.28;;
63114;SDS011;49208;50.874;6.466;2022-08-19T18:09:47;4.50;;;2.40;;
63114;SDS011;49208;50.874;6.466;2022-08-19T18:12:19;5.90;;;2.97;;
63114;SDS011;49208;50.874;6.466;2022-08-19T18:14:47;6.35;;;2.88;;
63114;SDS011;49208;50.874;6.466;2022-08-19T18:17:14;5.97;;;2.90;;
63114;SDS011;49208;50.874;6.466;2022-08-19T18:19:43;5.32;;;2.63;;
63114;SDS011;49208;50.874;6.466;2022-08-19T18:22:20;7.70;;;2.67;;
63114;SDS011;49208;50.874;6.466;2022-08-19T18:24:48;5.72;;;2.70;;
63114;SDS011;49208;50.874;6.466;2022-08-19T18:27:13;5.45;;;2.63;;
63114;SDS011;49208;50.874;6.466;2022-08-19T18:29:38;4.10;;;2.45;;
63114;SDS011;49208;50.874;6.466;2022-08-19T18:32:04;4.20;;;2.20;;
63114;SDS011;49208;50.874;6.466;2022-08-19T18:34:36;4.38;;;2.25;;
63114;SDS011;49208;50.874;6.466;2022-08-19T18:37:01;4.20;;;1.90;;
63114;SDS011;49208;50.874;6.466;2022-08-19T18:39:26;4.80;;;2.00;;
63114;SDS011;49208;50.874;6.466;2022-08-19T18:42:14;6.25;;;2.40;;
63114;SDS011;49208;50.874;6.466;2022-08-19T18:44:58;4.80;;;2.13;;
63114;SDS011;49208;50.874;6.466;2022-08-19T18:47:42;2.92;;;1.60;;
63114;SDS011;49208;50.874;6.466;2022-08-19T18:50:26;3.88;;;1.80;;
63114;SDS011;49208;50.874;6.466;2022-08-19T18:52:51;4.85;;;2.00;;
63114;SDS011;49208;50.874;6.466;2022-08-19T18:55:17;7.13;;;2.00;;
63114;SDS011;49208;50.874;6.466;2022-08-19T18:57:42;3.45;;;1.90;;
63114;SDS011;49208;50.874;6.466;2022-08-19T19:00:08;3.20;;;1.70;;
63114;SDS011;49208;50.874;6.466;2022-08-19T19:02:37;5.57;;;2.35;;
63114;SDS011;49208;50.874;6.466;2022-08-19T19:05:03;3.72;;;1.83;;
63114;SDS011;49208;50.874;6.466;2022-08-19T19:07:29;3.95;;;2.20;;
63114;SDS011;49208;50.874;6.466;2022-08-19T19:09:55;3.88;;;2.10;;
63114;SDS011;49208;50.874;6.466;2022-08-19T19:12:20;4.93;;;2.30;;
63114;SDS011;49208;50.874;6.466;2022-08-19T19:14:52;4.38;;;2.10;;
63114;SDS011;49208;50.874;6.466;2022-08-19T19:17:18;4.90;;;2.03;;
63114;SDS011;49208;50.874;6.466;2022-08-19T19:19:50;4.28;;;2.10;;
63114;SDS011;49208;50.874;6.466;2022-08-19T19:22:17;7.55;;;2.22;;
63114;SDS011;49208;50.874;6.466;2022-08-19T19:24:44;4.75;;;2.15;;
63114;SDS011;49208;50.874;6.466;2022-08-19T19:27:10;3.90;;;2.00;;
63114;SDS011;49208;50.874;6.466;2022-08-19T19:29:38;4.47;;;2.35;;
63114;SDS011;49208;50.874;6.466;2022-08-19T19:32:05;7.22;;;2.30;;
63114;SDS011;49208;50.874;6.466;2022-08-19T19:34:32;5.18;;;2.70;;
63114;SDS011;49208;50.874;6.466;2022-08-19T19:36:57;4.15;;;1.73;;
63114;SDS011;49208;50.874;6.466;2022-08-19T19:39:23;2.95;;;1.40;;
63114;SDS011;49208;50.874;6.466;2022-08-19T19:41:48;3.00;;;1.15;;
63114;SDS011;49208;50.874;6.466;2022-08-19T19:44:14;2.60;;;1.25;;
63114;SDS011;49208;50.874;6.466;2022-08-19T19:46:39;3.13;;;1.40;;
63114;SDS011;49208;50.874;6.466;2022-08-19T19:49:09;2.22;;;1.17;;
63114;SDS011;49208;50.874;6.466;2022-08-19T19:51:36;3.65;;;1.15;;
63114;SDS011;49208;50.874;6.466;2022-08-19T19:54:05;3.28;;;1.55;;
63114;SDS011;49208;50.874;6.466;2022-08-19T19:56:32;4.55;;;1.67;;
63114;SDS011;49208;50.874;6.466;2022-08-19T19:58:58;3.38;;;1.50;;
63114;SDS011;49208;50.874;6.466;2022-08-19T20:01:23;3.05;;;1.38;;
63114;SDS011;49208;50.874;6.466;2022-08-19T20:03:51;2.90;;;1.27;;